sensor_id;sensor_type;location;lat;lon;timestamp;P1;durP1;ratioP1;P2;durP2;ratioP2
77507;SDS011;66618;42.666;23.360;2023-03-14T00:00:55;5.90;;;3.42;;
77507;SDS011;66618;42.666;23.360;2023-03-14T00:03:21;5.15;;;3.15;;
77507;SDS011;66618;42.666;23.360;2023-03-14T00:05:46;6.63;;;4.57;;
77507;SDS011;66618;42.666;23.360;2023-03-14T00:08:11;6.78;;;4.70;;
77507;SDS011;66618;42.666;23.360;2023-03-14T00:10:37;7.00;;;4.20;;
77507;SDS011;66618;42.666;23.360;2023-03-14T00:13:03;4.05;;;2.28;;
77507;SDS011;66618;42.666;23.360;2023-03-14T00:15:28;5.10;;;3.35;;
77507;SDS011;66618;42.666;23.360;2023-03-14T00:17:54;6.50;;;3.85;;
77507;SDS011;66618;42.666;23.360;2023-03-14T00:20:19;6.75;;;3.80;;
77507;SDS011;66618;42.666;23.360;2023-03-14T00:22:44;4.35;;;3.28;;
77507;SDS011;66618;42.666;23.360;2023-03-14T00:25:10;6.57;;;3.70;;
77507;SDS011;66618;42.666;23.360;2023-03-14T00:27:36;6.20;;;3.80;;
77507;SDS011;66618;42.666;23.360;2023-03-14T00:30:02;6.90;;;4.20;;
77507;SDS011;66618;42.666;23.360;2023-03-14T00:32:28;8.70;;;4.03;;
77507;SDS011;66618;42.666;23.360;2023-03-14T00:34:54;6.50;;;3.88;;
77507;SDS011;66618;42.666;23.360;2023-03-14T00:37:19;6.68;;;3.80;;
77507;SDS011;66618;42.666;23.360;2023-03-14T00:39:45;9.48;;;3.70;;
77507;SDS011;66618;42.666;23.360;2023-03-14T00:42:10;6.13;;;4.03;;
77507;SDS011;66618;42.666;23.360;2023-03-14T00:44:36;5.38;;;3.85;;
77507;SDS011;66618;42.666;23.360;2023-03-14T00:47:01;7.50;;;3.85;;
77507;SDS011;66618;42.666;23.360;2023-03-14T00:49:26;5.97;;;3.92;;
77507;SDS011;66618;42.666;23.360;2023-03-14T00:51:52;7.85;;;3.88;;
77507;SDS011;66618;42.666;23.360;2023-03-14T00:54:18;7.68;;;4.20;;
77507;SDS011;66618;42.666;23.360;2023-03-14T00:56:44;5.75;;;2.97;;
77507;SDS011;66618;42.666;23.360;2023-03-14T00:59:09;8.55;;;4.00;;
77507;SDS011;66618;42.666;23.360;2023-03-14T01:01:35;7.55;;;4.10;;
77507;SDS011;66618;42.666;23.360;2023-03-14T01:04:00;7.60;;;4.57;;
77507;SDS011;66618;42.666;23.360;2023-03-14T01:06:27;5.70;;;3.67;;
77507;SDS011;66618;42.666;23.360;2023-03-14T01:08:53;9.18;;;5.50;;
77507;SDS011;66618;42.666;23.360;2023-03-14T01:11:24;7.70;;;4.60;;
77507;SDS011;66618;42.666;23.360;2023-03-14T01:13:51;8.80;;;5.25;;
77507;SDS011;66618;42.666;23.360;2023-03-14T01:16:18;8.73;;;4.43;;
77507;SDS011;66618;42.666;23.360;2023-03-14T01:18:44;9.18;;;4.78;;
77507;SDS011;66618;42.666;23.360;2023-03-14T01:21:12;9.88;;;4.82;;
77507;SDS011;66618;42.666;23.360;2023-03-14T01:23:38;10.05;;;4.45;;
77507;SDS011;66618;42.666;23.360;2023-03-14T01:26:03;12.40;;;5.07;;
77507;SDS011;66618;42.666;23.360;2023-03-14T01:28:29;9.23;;;4.88;;
77507;SDS011;66618;42.666;23.360;2023-03-14T01:30:54;7.22;;;4.25;;
77507;SDS011;66618;42.666;23.360;2023-03-14T01:33:19;8.30;;;4.65;;
77507;SDS011;66618;42.666;23.360;2023-03-14T01:35:45;12.57;;;5.90;;
77507;SDS011;66618;42.666;23.360;2023-03-14T01:38:10;11.52;;;5.88;;
77507;SDS011;66618;42.666;23.360;2023-03-14T01:40:43;12.10;;;6.13;;
77507;SDS011;66618;42.666;23.360;2023-03-14T01:43:16;16.05;;;7.22;;
77507;SDS011;66618;42.666;23.360;2023-03-14T01:48:23;13.48;;;7.05;;
77507;SDS011;66618;42.666;23.360;2023-03-14T01:50:48;13.93;;;7.15;;
77507;SDS011;66618;42.666;23.360;2023-03-14T01:53:13;15.90;;;7.40;;
77507;SDS011;66618;42.666;23.360;2023-03-14T01:55:39;12.80;;;7.07;;
77507;SDS011;66618;42.666;23.360;2023-03-14T01:58:05;18.05;;;8.63;;
77507;SDS011;66618;42.666;23.360;2023-03-14T02:00:31;20.23;;;9.68;;
77507;SDS011;66618;42.666;23.360;2023-03-14T02:03:05;15.52;;;8.73;;
77507;SDS011;66618;42.666;23.360;2023-03-14T02:05:32;17.77;;;8.80;;
77507;SDS011;66618;42.666;23.360;2023-03-14T02:08:00;16.90;;;8.50;;
77507;SDS011;66618;42.666;23.360;2023-03-14T02:10:35;16.42;;;9.43;;
77507;SDS011;66618;42.666;23.360;2023-03-14T02:13:04;17.70;;;9.25;;
77507;SDS011;66618;42.666;23.360;2023-03-14T02:15:30;16.75;;;8.45;;
77507;SDS011;66618;42.666;23.360;2023-03-14T02:17:56;19.45;;;9.48;;
77507;SDS011;66618;42.666;23.360;2023-03-14T02:22:50;17.73;;;10.02;;
77507;SDS011;66618;42.666;23.360;2023-03-14T02:25:38;17.98;;;9.38;;
77507;SDS011;66618;42.666;23.360;2023-03-14T02:28:01;16.95;;;9.10;;
77507;SDS011;66618;42.666;23.360;2023-03-14T02:30:27;20.70;;;8.90;;
77507;SDS011;66618;42.666;23.360;2023-03-14T02:32:58;17.92;;;8.80;;
77507;SDS011;66618;42.666;23.360;2023-03-14T02:35:27;17.65;;;9.07;;
77507;SDS011;66618;42.666;23.360;2023-03-14T02:40:38;22.40;;;10.65;;
77507;SDS011;66618;42.666;23.360;2023-03-14T02:43:03;22.98;;;9.73;;
77507;SDS011;66618;42.666;23.360;2023-03-14T02:45:35;18.48;;;9.05;;
77507;SDS011;66618;42.666;23.360;2023-03-14T02:48:13;21.25;;;9.27;;
77507;SDS011;66618;42.666;23.360;2023-03-14T02:50:41;19.73;;;9.20;;
77507;SDS011;66618;42.666;23.360;2023-03-14T02:53:06;16.92;;;9.40;;
77507;SDS011;66618;42.666;23.360;2023-03-14T02:55:32;17.88;;;9.48;;
77507;SDS011;66618;42.666;23.360;2023-03-14T02:57:57;18.88;;;9.35;;
77507;SDS011;66618;42.666;23.360;2023-03-14T03:00:23;17.00;;;9.15;;
77507;SDS011;66618;42.666;23.360;2023-03-14T03:02:48;19.95;;;9.68;;
77507;SDS011;66618;42.666;23.360;2023-03-14T03:05:13;18.35;;;9.55;;
77507;SDS011;66618;42.666;23.360;2023-03-14T03:07:39;19.90;;;9.45;;
77507;SDS011;66618;42.666;23.360;2023-03-14T03:10:04;18.48;;;9.55;;
77507;SDS011;66618;42.666;23.360;2023-03-14T03:12:30;18.17;;;9.32;;
77507;SDS011;66618;42.666;23.360;2023-03-14T03:14:56;18.27;;;9.43;;
77507;SDS011;66618;42.666;23.360;2023-03-14T03:17:21;18.65;;;9.25;;
77507;SDS011;66618;42.666;23.360;2023-03-14T03:19:46;18.42;;;9.27;;
77507;SDS011;66618;42.666;23.360;2023-03-14T03:22:12;19.27;;;8.93;;
77507;SDS011;66618;42.666;23.360;2023-03-14T03:24:37;20.17;;;10.25;;
77507;SDS011;66618;42.666;23.360;2023-03-14T03:27:03;16.48;;;8.88;;
77507;SDS011;66618;42.666;23.360;2023-03-14T03:29:28;19.80;;;9.27;;
77507;SDS011;66618;42.666;23.360;2023-03-14T03:31:53;19.20;;;9.00;;
77507;SDS011;66618;42.666;23.360;2023-03-14T03:34:19;22.70;;;8.80;;
77507;SDS011;66618;42.666;23.360;2023-03-14T03:36:44;16.25;;;9.23;;
77507;SDS011;66618;42.666;23.360;2023-03-14T03:39:09;17.30;;;9.00;;
77507;SDS011;66618;42.666;23.360;2023-03-14T03:41:35;20.38;;;9.52;;
77507;SDS011;66618;42.666;23.360;2023-03-14T03:44:00;18.95;;;9.88;;
77507;SDS011;66618;42.666;23.360;2023-03-14T03:46:26;19.48;;;9.68;;
77507;SDS011;66618;42.666;23.360;2023-03-14T03:48:58;20.65;;;9.63;;
77507;SDS011;66618;42.666;23.360;2023-03-14T03:51:24;16.50;;;9.05;;
77507;SDS011;66618;42.666;23.360;2023-03-14T03:53:50;18.48;;;9.40;;
77507;SDS011;66618;42.666;23.360;2023-03-14T03:56:15;19.27;;;9.20;;
77507;SDS011;66618;42.666;23.360;2023-03-14T03:58:41;18.52;;;9.52;;
77507;SDS011;66618;42.666;23.360;2023-03-14T04:01:07;21.30;;;9.43;;
77507;SDS011;66618;42.666;23.360;2023-03-14T04:03:33;19.92;;;9.38;;
77507;SDS011;66618;42.666;23.360;2023-03-14T04:06:02;18.90;;;8.45;;
77507;SDS011;66618;42.666;23.360;2023-03-14T04:08:32;16.65;;;7.93;;
77507;SDS011;66618;42.666;23.360;2023-03-14T04:10:58;21.95;;;8.35;;
77507;SDS011;66618;42.666;23.360;2023-03-14T04:13:25;17.05;;;8.98;;
77507;SDS011;66618;42.666;23.360;2023-03-14T04:15:51;22.60;;;8.52;;
77507;SDS011;66618;42.666;23.360;2023-03-14T04:18:18;20.25;;;9.57;;
77507;SDS011;66618;42.666;23.360;2023-03-14T04:20:43;15.80;;;8.55;;
77507;SDS011;66618;42.666;23.360;2023-03-14T04:23:09;17.20;;;8.95;;
77507;SDS011;66618;42.666;23.360;2023-03-14T04:25:34;19.80;;;9.25;;
77507;SDS011;66618;42.666;23.360;2023-03-14T04:27:59;16.67;;;8.70;;
77507;SDS011;66618;42.666;23.360;2023-03-14T04:30:25;18.52;;;9.00;;
77507;SDS011;66618;42.666;23.360;2023-03-14T04:32:50;16.75;;;8.40;;
77507;SDS011;66618;42.666;23.360;2023-03-14T04:35:15;19.83;;;9.52;;
77507;SDS011;66618;42.666;23.360;2023-03-14T04:37:41;16.23;;;8.75;;
77507;SDS011;66618;42.666;23.360;2023-03-14T04:40:08;21.75;;;9.63;;
77507;SDS011;66618;42.666;23.360;2023-03-14T04:42:34;16.48;;;8.73;;
77507;SDS011;66618;42.666;23.360;2023-03-14T04:45:00;18.88;;;9.38;;
77507;SDS011;66618;42.666;23.360;2023-03-14T04:47:25;22.92;;;9.30;;
77507;SDS011;66618;42.666;23.360;2023-03-14T04:49:51;16.95;;;9.35;;
77507;SDS011;66618;42.666;23.360;2023-03-14T04:52:16;20.63;;;9.13;;
77507;SDS011;66618;42.666;23.360;2023-03-14T04:54:42;19.45;;;9.45;;
77507;SDS011;66618;42.666;23.360;2023-03-14T04:57:07;21.90;;;9.75;;
77507;SDS011;66618;42.666;23.360;2023-03-14T04:59:32;22.80;;;9.73;;
77507;SDS011;66618;42.666;23.360;2023-03-14T05:01:58;21.83;;;9.55;;
77507;SDS011;66618;42.666;23.360;2023-03-14T05:04:24;18.38;;;9.25;;
77507;SDS011;66618;42.666;23.360;2023-03-14T05:06:50;24.95;;;9.85;;
77507;SDS011;66618;42.666;23.360;2023-03-14T05:09:15;21.73;;;9.40;;
77507;SDS011;66618;42.666;23.360;2023-03-14T05:11:40;21.33;;;9.82;;
77507;SDS011;66618;42.666;23.360;2023-03-14T05:14:06;23.20;;;9.32;;
77507;SDS011;66618;42.666;23.360;2023-03-14T05:16:31;23.55;;;9.73;;
77507;SDS011;66618;42.666;23.360;2023-03-14T05:18:57;20.00;;;9.23;;
77507;SDS011;66618;42.666;23.360;2023-03-14T05:21:22;24.30;;;10.52;;
77507;SDS011;66618;42.666;23.360;2023-03-14T05:23:48;19.65;;;10.48;;
77507;SDS011;66618;42.666;23.360;2023-03-14T05:26:13;20.35;;;9.73;;
77507;SDS011;66618;42.666;23.360;2023-03-14T05:28:38;18.85;;;9.90;;
77507;SDS011;66618;42.666;23.360;2023-03-14T05:31:07;19.55;;;10.02;;
77507;SDS011;66618;42.666;23.360;2023-03-14T05:33:33;20.80;;;10.82;;
77507;SDS011;66618;42.666;23.360;2023-03-14T05:35:58;20.63;;;11.30;;
77507;SDS011;66618;42.666;23.360;2023-03-14T05:38:24;23.88;;;11.70;;
77507;SDS011;66618;42.666;23.360;2023-03-14T05:40:49;23.77;;;12.65;;
77507;SDS011;66618;42.666;23.360;2023-03-14T05:43:14;26.00;;;12.32;;
77507;SDS011;66618;42.666;23.360;2023-03-14T05:45:41;23.98;;;13.18;;
77507;SDS011;66618;42.666;23.360;2023-03-14T05:48:07;23.33;;;12.65;;
77507;SDS011;66618;42.666;23.360;2023-03-14T05:50:32;23.77;;;13.50;;
77507;SDS011;66618;42.666;23.360;2023-03-14T05:52:57;29.63;;;15.48;;
77507;SDS011;66618;42.666;23.360;2023-03-14T05:55:23;31.27;;;16.55;;
77507;SDS011;66618;42.666;23.360;2023-03-14T05:57:48;31.95;;;17.10;;
77507;SDS011;66618;42.666;23.360;2023-03-14T06:00:14;30.73;;;17.58;;
77507;SDS011;66618;42.666;23.360;2023-03-14T06:02:39;38.03;;;19.08;;
77507;SDS011;66618;42.666;23.360;2023-03-14T06:05:05;32.70;;;17.65;;
77507;SDS011;66618;42.666;23.360;2023-03-14T06:07:31;33.08;;;17.92;;
77507;SDS011;66618;42.666;23.360;2023-03-14T06:09:56;34.55;;;18.98;;
77507;SDS011;66618;42.666;23.360;2023-03-14T06:12:21;28.83;;;15.70;;
77507;SDS011;66618;42.666;23.360;2023-03-14T06:14:47;25.42;;;15.10;;
77507;SDS011;66618;42.666;23.360;2023-03-14T06:17:12;30.75;;;17.02;;
77507;SDS011;66618;42.666;23.360;2023-03-14T06:19:38;31.52;;;17.73;;
77507;SDS011;66618;42.666;23.360;2023-03-14T06:22:03;32.33;;;16.23;;
77507;SDS011;66618;42.666;23.360;2023-03-14T06:24:28;28.85;;;15.77;;
77507;SDS011;66618;42.666;23.360;2023-03-14T06:26:54;25.50;;;14.45;;
77507;SDS011;66618;42.666;23.360;2023-03-14T06:29:19;24.10;;;14.10;;
77507;SDS011;66618;42.666;23.360;2023-03-14T06:31:45;25.70;;;14.30;;
77507;SDS011;66618;42.666;23.360;2023-03-14T06:34:10;23.98;;;13.02;;
77507;SDS011;66618;42.666;23.360;2023-03-14T06:36:35;24.40;;;12.20;;
77507;SDS011;66618;42.666;23.360;2023-03-14T06:39:01;19.65;;;11.00;;
77507;SDS011;66618;42.666;23.360;2023-03-14T06:41:26;16.27;;;9.65;;
77507;SDS011;66618;42.666;23.360;2023-03-14T06:43:52;20.02;;;10.75;;
77507;SDS011;66618;42.666;23.360;2023-03-14T06:46:17;16.33;;;9.65;;
77507;SDS011;66618;42.666;23.360;2023-03-14T06:48:43;14.13;;;9.32;;
77507;SDS011;66618;42.666;23.360;2023-03-14T06:51:08;15.82;;;10.85;;
77507;SDS011;66618;42.666;23.360;2023-03-14T06:53:33;13.73;;;9.00;;
77507;SDS011;66618;42.666;23.360;2023-03-14T06:55:59;17.33;;;9.18;;
77507;SDS011;66618;42.666;23.360;2023-03-14T06:58:24;12.43;;;8.13;;
77507;SDS011;66618;42.666;23.360;2023-03-14T07:00:50;12.55;;;7.70;;
77507;SDS011;66618;42.666;23.360;2023-03-14T07:03:15;12.45;;;7.32;;
77507;SDS011;66618;42.666;23.360;2023-03-14T07:05:40;13.75;;;8.13;;
77507;SDS011;66618;42.666;23.360;2023-03-14T07:08:06;15.45;;;7.40;;
77507;SDS011;66618;42.666;23.360;2023-03-14T07:10:33;13.55;;;6.97;;
77507;SDS011;66618;42.666;23.360;2023-03-14T07:12:58;14.80;;;10.15;;
77507;SDS011;66618;42.666;23.360;2023-03-14T07:15:24;15.30;;;8.98;;
77507;SDS011;66618;42.666;23.360;2023-03-14T07:17:49;17.00;;;10.73;;
77507;SDS011;66618;42.666;23.360;2023-03-14T07:20:15;20.77;;;12.43;;
77507;SDS011;66618;42.666;23.360;2023-03-14T07:22:41;21.02;;;11.68;;
77507;SDS011;66618;42.666;23.360;2023-03-14T07:25:06;19.42;;;10.20;;
77507;SDS011;66618;42.666;23.360;2023-03-14T07:27:34;17.10;;;10.02;;
77507;SDS011;66618;42.666;23.360;2023-03-14T07:29:59;16.42;;;10.02;;
77507;SDS011;66618;42.666;23.360;2023-03-14T07:32:25;22.40;;;10.30;;
77507;SDS011;66618;42.666;23.360;2023-03-14T07:34:50;19.23;;;10.88;;
77507;SDS011;66618;42.666;23.360;2023-03-14T07:37:15;16.05;;;9.40;;
77507;SDS011;66618;42.666;23.360;2023-03-14T07:39:41;16.33;;;11.32;;
77507;SDS011;66618;42.666;23.360;2023-03-14T07:42:06;13.45;;;7.88;;
77507;SDS011;66618;42.666;23.360;2023-03-14T07:44:32;15.15;;;9.20;;
77507;SDS011;66618;42.666;23.360;2023-03-14T07:46:57;19.60;;;10.50;;
77507;SDS011;66618;42.666;23.360;2023-03-14T07:49:23;19.00;;;10.32;;
77507;SDS011;66618;42.666;23.360;2023-03-14T07:51:48;15.18;;;9.63;;
77507;SDS011;66618;42.666;23.360;2023-03-14T07:54:14;16.38;;;9.88;;
77507;SDS011;66618;42.666;23.360;2023-03-14T07:56:39;17.50;;;8.98;;
77507;SDS011;66618;42.666;23.360;2023-03-14T07:59:05;16.98;;;9.07;;
77507;SDS011;66618;42.666;23.360;2023-03-14T08:01:30;13.80;;;9.05;;
77507;SDS011;66618;42.666;23.360;2023-03-14T08:03:56;18.67;;;9.13;;
77507;SDS011;66618;42.666;23.360;2023-03-14T08:06:21;14.20;;;8.63;;
77507;SDS011;66618;42.666;23.360;2023-03-14T08:08:47;15.65;;;8.68;;
77507;SDS011;66618;42.666;23.360;2023-03-14T08:11:12;14.48;;;8.30;;
77507;SDS011;66618;42.666;23.360;2023-03-14T08:13:37;14.43;;;8.43;;
77507;SDS011;66618;42.666;23.360;2023-03-14T08:16:04;11.48;;;7.00;;
77507;SDS011;66618;42.666;23.360;2023-03-14T08:18:29;14.43;;;8.95;;
77507;SDS011;66618;42.666;23.360;2023-03-14T08:20:55;15.65;;;9.32;;
77507;SDS011;66618;42.666;23.360;2023-03-14T08:23:21;13.73;;;7.97;;
77507;SDS011;66618;42.666;23.360;2023-03-14T08:25:48;12.82;;;7.88;;
77507;SDS011;66618;42.666;23.360;2023-03-14T08:28:15;14.15;;;7.60;;
77507;SDS011;66618;42.666;23.360;2023-03-14T08:30:40;13.07;;;8.35;;
77507;SDS011;66618;42.666;23.360;2023-03-14T08:33:06;13.60;;;7.85;;
77507;SDS011;66618;42.666;23.360;2023-03-14T08:35:31;10.07;;;6.10;;
77507;SDS011;66618;42.666;23.360;2023-03-14T08:37:56;14.32;;;8.60;;
77507;SDS011;66618;42.666;23.360;2023-03-14T08:40:22;13.30;;;6.82;;
77507;SDS011;66618;42.666;23.360;2023-03-14T08:42:47;14.02;;;7.75;;
77507;SDS011;66618;42.666;23.360;2023-03-14T08:45:13;11.93;;;6.97;;
77507;SDS011;66618;42.666;23.360;2023-03-14T08:47:39;10.23;;;6.47;;
77507;SDS011;66618;42.666;23.360;2023-03-14T08:50:05;11.55;;;7.93;;
77507;SDS011;66618;42.666;23.360;2023-03-14T08:52:31;11.40;;;7.10;;
77507;SDS011;66618;42.666;23.360;2023-03-14T08:54:57;14.52;;;7.70;;
77507;SDS011;66618;42.666;23.360;2023-03-14T08:57:22;10.73;;;6.97;;
77507;SDS011;66618;42.666;23.360;2023-03-14T08:59:52;9.57;;;6.70;;
77507;SDS011;66618;42.666;23.360;2023-03-14T09:02:19;11.52;;;6.40;;
77507;SDS011;66618;42.666;23.360;2023-03-14T09:04:44;11.50;;;6.57;;
77507;SDS011;66618;42.666;23.360;2023-03-14T09:07:09;11.65;;;7.22;;
77507;SDS011;66618;42.666;23.360;2023-03-14T09:09:35;10.93;;;6.95;;
77507;SDS011;66618;42.666;23.360;2023-03-14T09:12:00;12.48;;;6.65;;
77507;SDS011;66618;42.666;23.360;2023-03-14T09:14:26;8.52;;;5.47;;
77507;SDS011;66618;42.666;23.360;2023-03-14T09:16:51;9.23;;;5.28;;
77507;SDS011;66618;42.666;23.360;2023-03-14T09:19:17;11.10;;;6.32;;
77507;SDS011;66618;42.666;23.360;2023-03-14T09:21:42;9.40;;;5.85;;
77507;SDS011;66618;42.666;23.360;2023-03-14T09:24:08;11.70;;;6.57;;
77507;SDS011;66618;42.666;23.360;2023-03-14T09:26:33;11.00;;;5.70;;
77507;SDS011;66618;42.666;23.360;2023-03-14T09:28:58;9.93;;;5.32;;
77507;SDS011;66618;42.666;23.360;2023-03-14T09:31:24;9.50;;;6.03;;
77507;SDS011;66618;42.666;23.360;2023-03-14T09:33:49;10.30;;;5.78;;
77507;SDS011;66618;42.666;23.360;2023-03-14T09:36:15;7.22;;;5.30;;
77507;SDS011;66618;42.666;23.360;2023-03-14T09:38:40;11.15;;;5.60;;
77507;SDS011;66618;42.666;23.360;2023-03-14T09:41:12;10.98;;;6.30;;
77507;SDS011;66618;42.666;23.360;2023-03-14T09:43:40;10.75;;;5.95;;
77507;SDS011;66618;42.666;23.360;2023-03-14T09:46:07;11.50;;;5.28;;
77507;SDS011;66618;42.666;23.360;2023-03-14T09:48:34;17.27;;;6.95;;
77507;SDS011;66618;42.666;23.360;2023-03-14T09:51:01;8.82;;;6.50;;
77507;SDS011;66618;42.666;23.360;2023-03-14T09:53:40;10.82;;;6.40;;
77507;SDS011;66618;42.666;23.360;2023-03-14T09:56:11;11.27;;;6.70;;
77507;SDS011;66618;42.666;23.360;2023-03-14T09:58:40;11.32;;;6.00;;
77507;SDS011;66618;42.666;23.360;2023-03-14T10:01:07;10.68;;;7.05;;
77507;SDS011;66618;42.666;23.360;2023-03-14T10:03:36;13.75;;;7.28;;
77507;SDS011;66618;42.666;23.360;2023-03-14T10:06:01;10.75;;;6.18;;
77507;SDS011;66618;42.666;23.360;2023-03-14T10:08:27;11.35;;;7.32;;
77507;SDS011;66618;42.666;23.360;2023-03-14T10:10:54;9.35;;;6.28;;
77507;SDS011;66618;42.666;23.360;2023-03-14T10:13:23;9.07;;;6.03;;
77507;SDS011;66618;42.666;23.360;2023-03-14T10:15:52;9.70;;;6.13;;
77507;SDS011;66618;42.666;23.360;2023-03-14T10:21:01;10.32;;;5.85;;
77507;SDS011;66618;42.666;23.360;2023-03-14T10:23:29;10.27;;;5.50;;
77507;SDS011;66618;42.666;23.360;2023-03-14T10:28:42;8.57;;;5.28;;
77507;SDS011;66618;42.666;23.360;2023-03-14T10:31:08;8.60;;;4.32;;
77507;SDS011;66618;42.666;23.360;2023-03-14T10:33:35;6.82;;;4.60;;
77507;SDS011;66618;42.666;23.360;2023-03-14T10:36:02;7.70;;;4.68;;
77507;SDS011;66618;42.666;23.360;2023-03-14T10:38:35;8.00;;;5.57;;
77507;SDS011;66618;42.666;23.360;2023-03-14T10:41:01;9.70;;;4.95;;
77507;SDS011;66618;42.666;23.360;2023-03-14T10:43:32;8.63;;;4.55;;
77507;SDS011;66618;42.666;23.360;2023-03-14T10:46:00;4.65;;;3.22;;
77507;SDS011;66618;42.666;23.360;2023-03-14T10:48:37;8.40;;;4.38;;
77507;SDS011;66618;42.666;23.360;2023-03-14T10:56:14;6.32;;;3.78;;
77507;SDS011;66618;42.666;23.360;2023-03-14T10:58:44;6.60;;;3.42;;
77507;SDS011;66618;42.666;23.360;2023-03-14T11:01:17;5.25;;;2.92;;
77507;SDS011;66618;42.666;23.360;2023-03-14T11:04:20;5.10;;;3.00;;
77507;SDS011;66618;42.666;23.360;2023-03-14T11:06:56;4.45;;;2.70;;
77507;SDS011;66618;42.666;23.360;2023-03-14T11:12:23;4.90;;;2.97;;
77507;SDS011;66618;42.666;23.360;2023-03-14T11:15:18;6.75;;;3.47;;
77507;SDS011;66618;42.666;23.360;2023-03-14T11:17:52;5.63;;;2.83;;
77507;SDS011;66618;42.666;23.360;2023-03-14T11:26:37;4.55;;;2.70;;
77507;SDS011;66618;42.666;23.360;2023-03-14T11:32:01;4.22;;;2.40;;
77507;SDS011;66618;42.666;23.360;2023-03-14T11:34:28;4.18;;;3.13;;
77507;SDS011;66618;42.666;23.360;2023-03-14T11:39:29;5.53;;;3.17;;
77507;SDS011;66618;42.666;23.360;2023-03-14T11:42:03;4.10;;;2.53;;
77507;SDS011;66618;42.666;23.360;2023-03-14T11:44:32;4.10;;;2.90;;
77507;SDS011;66618;42.666;23.360;2023-03-14T11:47:11;5.63;;;3.08;;
77507;SDS011;66618;42.666;23.360;2023-03-14T11:52:29;3.80;;;2.85;;
77507;SDS011;66618;42.666;23.360;2023-03-14T11:55:14;4.78;;;2.60;;
77507;SDS011;66618;42.666;23.360;2023-03-14T11:57:44;4.28;;;2.47;;
77507;SDS011;66618;42.666;23.360;2023-03-14T12:00:18;5.20;;;2.53;;
77507;SDS011;66618;42.666;23.360;2023-03-14T12:11:10;2.90;;;2.05;;
77507;SDS011;66618;42.666;23.360;2023-03-14T12:13:39;4.03;;;2.50;;
77507;SDS011;66618;42.666;23.360;2023-03-14T12:16:05;4.10;;;2.40;;
77507;SDS011;66618;42.666;23.360;2023-03-14T12:18:33;3.25;;;2.40;;
77507;SDS011;66618;42.666;23.360;2023-03-14T12:21:04;3.30;;;2.20;;
77507;SDS011;66618;42.666;23.360;2023-03-14T12:23:34;3.08;;;2.08;;
77507;SDS011;66618;42.666;23.360;2023-03-14T12:26:19;2.80;;;1.95;;
77507;SDS011;66618;42.666;23.360;2023-03-14T12:31:37;2.17;;;1.98;;
77507;SDS011;66618;42.666;23.360;2023-03-14T12:42:10;2.42;;;1.80;;
77507;SDS011;66618;42.666;23.360;2023-03-14T12:44:41;2.15;;;1.88;;
77507;SDS011;66618;42.666;23.360;2023-03-14T12:49:49;3.20;;;1.90;;
77507;SDS011;66618;42.666;23.360;2023-03-14T12:52:22;2.22;;;2.00;;
77507;SDS011;66618;42.666;23.360;2023-03-14T13:00:33;3.33;;;1.80;;
77507;SDS011;66618;42.666;23.360;2023-03-14T13:03:12;2.53;;;1.80;;
77507;SDS011;66618;42.666;23.360;2023-03-14T13:05:55;3.45;;;1.70;;
77507;SDS011;66618;42.666;23.360;2023-03-14T13:11:21;3.03;;;2.08;;
77507;SDS011;66618;42.666;23.360;2023-03-14T13:13:49;2.13;;;1.60;;
77507;SDS011;66618;42.666;23.360;2023-03-14T13:16:21;2.75;;;1.75;;
77507;SDS011;66618;42.666;23.360;2023-03-14T13:18:50;4.57;;;2.55;;
77507;SDS011;66618;42.666;23.360;2023-03-14T13:21:18;1.98;;;1.88;;
77507;SDS011;66618;42.666;23.360;2023-03-14T13:24:45;2.83;;;2.08;;
77507;SDS011;66618;42.666;23.360;2023-03-14T13:26:47;3.28;;;1.60;;
77507;SDS011;66618;42.666;23.360;2023-03-14T13:31:48;2.38;;;1.95;;
77507;SDS011;66618;42.666;23.360;2023-03-14T13:34:34;2.45;;;1.80;;
77507;SDS011;66618;42.666;23.360;2023-03-14T13:37:00;2.08;;;1.50;;
77507;SDS011;66618;42.666;23.360;2023-03-14T13:39:26;2.67;;;1.80;;
77507;SDS011;66618;42.666;23.360;2023-03-14T13:41:54;3.28;;;1.60;;
77507;SDS011;66618;42.666;23.360;2023-03-14T13:47:00;1.95;;;1.73;;
77507;SDS011;66618;42.666;23.360;2023-03-14T13:49:27;2.35;;;1.70;;
77507;SDS011;66618;42.666;23.360;2023-03-14T13:51:56;2.65;;;1.80;;
77507;SDS011;66618;42.666;23.360;2023-03-14T13:54:21;2.58;;;1.73;;
77507;SDS011;66618;42.666;23.360;2023-03-14T13:56:48;3.30;;;1.85;;
77507;SDS011;66618;42.666;23.360;2023-03-14T14:01:49;2.10;;;1.58;;
77507;SDS011;66618;42.666;23.360;2023-03-14T14:04:16;2.28;;;1.65;;
77507;SDS011;66618;42.666;23.360;2023-03-14T14:06:47;4.43;;;1.60;;
77507;SDS011;66618;42.666;23.360;2023-03-14T14:14:21;3.13;;;1.60;;
77507;SDS011;66618;42.666;23.360;2023-03-14T14:16:50;3.05;;;2.00;;
77507;SDS011;66618;42.666;23.360;2023-03-14T14:19:16;3.42;;;1.63;;
77507;SDS011;66618;42.666;23.360;2023-03-14T14:21:43;3.08;;;1.60;;
77507;SDS011;66618;42.666;23.360;2023-03-14T14:24:11;1.63;;;1.42;;
77507;SDS011;66618;42.666;23.360;2023-03-14T14:26:40;2.90;;;1.73;;
77507;SDS011;66618;42.666;23.360;2023-03-14T14:29:06;2.70;;;1.83;;
77507;SDS011;66618;42.666;23.360;2023-03-14T14:31:31;2.47;;;1.70;;
77507;SDS011;66618;42.666;23.360;2023-03-14T14:33:58;2.60;;;2.10;;
77507;SDS011;66618;42.666;23.360;2023-03-14T14:36:32;3.05;;;1.83;;
77507;SDS011;66618;42.666;23.360;2023-03-14T14:41:31;1.70;;;1.60;;
77507;SDS011;66618;42.666;23.360;2023-03-14T14:43:58;1.60;;;1.40;;
77507;SDS011;66618;42.666;23.360;2023-03-14T14:46:25;3.70;;;2.20;;
77507;SDS011;66618;42.666;23.360;2023-03-14T14:48:54;2.63;;;1.90;;
77507;SDS011;66618;42.666;23.360;2023-03-14T14:51:25;2.53;;;1.63;;
77507;SDS011;66618;42.666;23.360;2023-03-14T14:57:02;3.85;;;2.03;;
77507;SDS011;66618;42.666;23.360;2023-03-14T14:59:30;4.03;;;2.05;;
77507;SDS011;66618;42.666;23.360;2023-03-14T15:02:00;4.47;;;1.90;;
77507;SDS011;66618;42.666;23.360;2023-03-14T15:04:26;2.00;;;1.73;;
77507;SDS011;66618;42.666;23.360;2023-03-14T15:06:54;3.08;;;1.65;;
77507;SDS011;66618;42.666;23.360;2023-03-14T15:09:20;3.50;;;1.83;;
77507;SDS011;66618;42.666;23.360;2023-03-14T15:11:46;2.50;;;1.60;;
77507;SDS011;66618;42.666;23.360;2023-03-14T15:14:12;3.20;;;1.85;;
77507;SDS011;66618;42.666;23.360;2023-03-14T15:16:37;4.05;;;2.00;;
77507;SDS011;66618;42.666;23.360;2023-03-14T15:19:08;3.60;;;1.55;;
77507;SDS011;66618;42.666;23.360;2023-03-14T15:21:36;1.83;;;1.65;;
77507;SDS011;66618;42.666;23.360;2023-03-14T15:24:01;3.88;;;1.75;;
77507;SDS011;66618;42.666;23.360;2023-03-14T15:26:28;2.28;;;1.58;;
77507;SDS011;66618;42.666;23.360;2023-03-14T15:28:54;1.80;;;1.63;;
77507;SDS011;66618;42.666;23.360;2023-03-14T15:31:20;4.07;;;1.90;;
77507;SDS011;66618;42.666;23.360;2023-03-14T15:33:48;8.77;;;3.42;;
77507;SDS011;66618;42.666;23.360;2023-03-14T15:38:44;2.38;;;1.77;;
77507;SDS011;66618;42.666;23.360;2023-03-14T15:41:10;3.28;;;2.08;;
77507;SDS011;66618;42.666;23.360;2023-03-14T15:43:35;2.65;;;2.03;;
77507;SDS011;66618;42.666;23.360;2023-03-14T15:46:00;2.67;;;1.85;;
77507;SDS011;66618;42.666;23.360;2023-03-14T15:48:26;3.28;;;1.90;;
77507;SDS011;66618;42.666;23.360;2023-03-14T15:50:51;3.13;;;1.90;;
77507;SDS011;66618;42.666;23.360;2023-03-14T15:53:17;2.05;;;1.48;;